Time;durP1;ratioP1;P1;durP2;ratioP2;P2;SDS_P1;SDS_P2;PMS_P1;PMS_P2;Temp;Humidity;BMP_temperature;BMP_pressure;BME280_temperature;BME280_humidity;BME280_pressure;Samples;Min_cycle;Max_cycle;Signal;HPM_P1;HPM_P2
2022/05/31 00:01:23;;;;;;;;;3.67;3.67;;;;;14.70;52.76;100709.97;5080417;28;45298;-71
2022/05/31 00:03:48;;;;;;;;;4.00;4.00;;;;;14.80;52.91;100727.50;5080564;27;45363;-71
2022/05/31 00:06:14;;;;;;;;;5.00;5.00;;;;;14.73;53.32;100722.94;5100613;27;45927;-71
2022/05/31 00:08:39;;;;;;;;;3.00;2.00;;;;;14.73;52.78;100720.25;5100704;27;45409;-71
2022/05/31 00:11:04;;;;;;;;;2.00;2.00;;;;;14.76;52.88;100721.72;5100759;27;45248;-71
2022/05/31 00:13:30;;;;;;;;;3.33;3.33;;;;;14.71;53.29;100721.50;5100360;27;45350;-71
2022/05/31 00:15:56;;;;;;;;;5.00;5.00;;;;;14.58;53.21;100706.25;5133762;27;47991;-71
2022/05/31 00:18:21;;;;;;;;;3.00;2.67;;;;;14.55;53.38;100720.03;5100280;27;45333;-71
2022/05/31 00:20:47;;;;;;;;;3.00;3.00;;;;;14.54;54.12;100718.38;5099425;27;45247;-71
2022/05/31 00:23:13;;;;;;;;;5.00;3.33;;;;;14.51;54.18;100723.09;5100269;27;45266;-71
2022/05/31 00:25:38;;;;;;;;;3.67;3.67;;;;;14.39;54.30;100703.28;5100369;27;45399;-71
2022/05/31 00:28:04;;;;;;;;;3.00;3.00;;;;;14.42;54.54;100715.47;5100357;27;45546;-71
2022/05/31 00:30:30;;;;;;;;;3.00;3.00;;;;;14.37;54.92;100710.72;5100562;27;45370;-71
2022/05/31 00:32:56;;;;;;;;;4.67;4.00;;;;;14.45;54.84;100710.53;5099900;27;45400;-71
2022/05/31 00:35:27;;;;;;;;;5.33;5.33;;;;;14.38;55.23;100707.84;5100295;27;45401;-71
2022/05/31 00:37:54;;;;;;;;;4.00;4.00;;;;;14.42;55.28;100713.59;5098274;27;45929;-71
2022/05/31 00:40:22;;;;;;;;;6.33;4.67;;;;;14.31;55.50;100700.81;5100308;27;45447;-71
2022/05/31 00:42:53;;;;;;;;;5.33;5.33;;;;;14.36;55.31;100711.72;5098427;27;45633;-71
2022/05/31 00:45:21;;;;;;;;;1.00;1.00;;;;;14.32;55.66;100705.13;5100066;27;45354;-71
2022/05/31 00:47:47;;;;;;;;;7.00;6.00;;;;;14.30;56.08;100701.84;5099596;27;45408;-71
2022/05/31 00:50:31;;;;;;;;;4.00;4.00;;;;;14.31;55.79;100714.97;5098867;27;45401;-71
2022/05/31 00:53:07;;;;;;;;;5.00;5.00;;;;;14.22;55.82;100705.50;5099872;27;45471;-71
2022/05/31 00:55:42;;;;;;;;;4.33;4.33;;;;;14.25;55.91;100708.59;5099980;27;45484;-72
2022/05/31 00:58:24;;;;;;;;;4.00;4.00;;;;;14.31;55.91;100714.19;5099868;27;45421;-71
2022/05/31 01:00:52;;;;;;;;;3.67;3.67;;;;;14.32;55.29;100710.47;5100098;27;45405;-71
2022/05/31 01:03:20;;;;;;;;;4.00;4.00;;;;;14.31;54.98;100706.16;5098176;27;46082;-71
2022/05/31 01:05:46;;;;;;;;;4.67;4.67;;;;;14.25;55.11;100697.91;5082444;27;45376;-71
2022/05/31 01:08:12;;;;;;;;;5.00;4.00;;;;;14.27;55.31;100690.53;5111905;27;45330;-71
2022/05/31 01:10:41;;;;;;;;;4.33;4.00;;;;;14.35;55.45;100705.56;5079559;27;45277;-72
2022/05/31 01:13:07;;;;;;;;;4.00;4.00;;;;;14.23;55.01;100678.59;5079033;28;45363;-71
2022/05/31 01:15:33;;;;;;;;;4.67;4.67;;;;;14.27;55.68;100690.53;5079163;28;45357;-72
2022/05/31 01:17:59;;;;;;;;;1.00;1.00;;;;;14.26;55.60;100699.56;5078898;27;45322;-72
2022/05/31 01:20:24;;;;;;;;;4.33;4.33;;;;;14.25;55.46;100694.44;5078140;28;45760;-71
2022/05/31 01:22:52;;;;;;;;;3.67;3.67;;;;;14.30;55.27;100701.84;5077786;28;47049;-71
2022/05/31 01:25:23;;;;;;;;;6.00;6.00;;;;;14.26;55.85;100704.91;5077798;28;47272;-71
2022/05/31 01:28:01;;;;;;;;;5.67;4.00;;;;;14.25;55.56;100707.78;5078900;28;45392;-71
2022/05/31 01:30:30;;;;;;;;;3.33;3.33;;;;;14.17;55.88;100691.91;5079326;27;45354;-71
2022/05/31 01:33:03;;;;;;;;;3.67;3.67;;;;;14.22;55.49;100700.16;5078642;28;45454;-71
2022/05/31 01:35:32;;;;;;;;;2.00;2.00;;;;;14.18;55.39;100702.41;5077595;28;47301;-71
2022/05/31 01:38:09;;;;;;;;;3.33;3.33;;;;;14.09;55.35;100688.38;5078926;27;45684;-71
2022/05/31 01:40:42;;;;;;;;;4.67;4.67;;;;;14.14;55.75;100695.81;5079077;27;45646;-72
2022/05/31 01:43:07;;;;;;;;;3.67;3.67;;;;;14.04;56.31;100696.19;5111521;27;45405;-71
2022/05/31 01:45:41;;;;;;;;;4.67;4.33;;;;;14.01;56.53;100686.69;5078796;28;45960;-71
2022/05/31 01:48:08;;;;;;;;;4.00;4.00;;;;;14.00;57.17;100694.91;5078686;28;45308;-71
2022/05/31 01:50:35;;;;;;;;;5.33;5.33;;;;;14.01;56.80;100702.72;5081171;27;45795;-72
2022/05/31 01:53:01;;;;;;;;;5.00;5.00;;;;;13.95;57.12;100690.16;5082090;28;45305;-71
2022/05/31 01:55:26;;;;;;;;;5.33;4.00;;;;;13.93;57.75;100692.22;5082188;28;46329;-71
2022/05/31 01:57:59;;;;;;;;;3.67;3.67;;;;;13.93;57.25;100699.41;5082227;28;45241;-71
2022/05/31 02:00:26;;;;;;;;;3.33;3.33;;;;;13.84;57.30;100698.75;5082442;27;45289;-71
2022/05/31 02:02:55;;;;;;;;;4.00;4.00;;;;;13.86;58.04;100704.72;5081979;27;45227;-71
2022/05/31 02:05:21;;;;;;;;;4.67;3.00;;;;;13.73;58.07;100689.44;5095467;27;45323;-71
2022/05/31 02:07:55;;;;;;;;;5.00;5.00;;;;;13.79;58.28;100710.03;5101021;27;45573;-71
2022/05/31 02:10:21;;;;;;;;;5.00;5.00;;;;;13.70;58.98;100701.34;5102544;27;45305;-71
2022/05/31 02:12:47;;;;;;;;;5.67;5.00;;;;;13.74;58.98;100707.94;5102302;27;45400;-71
2022/05/31 02:15:12;;;;;;;;;4.00;4.00;;;;;13.72;58.69;100710.00;5102349;27;45407;-71
2022/05/31 02:17:38;;;;;;;;;4.67;4.00;;;;;13.63;58.92;100703.16;5102322;27;45543;-71
2022/05/31 02:20:03;;;;;;;;;5.33;5.33;;;;;13.68;59.03;100710.56;5102416;27;45491;-71
2022/05/31 02:22:30;;;;;;;;;6.00;5.00;;;;;13.60;58.82;100703.53;5135620;27;45889;-71
2022/05/31 02:24:55;;;;;;;;;7.00;6.67;;;;;13.66;59.00;100720.63;5100816;27;47094;-71
2022/05/31 02:27:21;;;;;;;;;4.00;4.00;;;;;13.59;59.21;100702.69;5102067;27;45360;-71
2022/05/31 02:29:46;;;;;;;;;4.00;4.00;;;;;13.59;59.86;100699.22;5102364;27;45525;-71
2022/05/31 02:32:14;;;;;;;;;4.00;4.00;;;;;13.52;59.58;100688.47;5102293;27;45505;-71
2022/05/31 02:34:43;;;;;;;;;3.33;3.33;;;;;13.66;59.46;100716.09;5100544;27;48002;-71
2022/05/31 02:37:09;;;;;;;;;5.33;4.00;;;;;13.60;59.55;100695.53;5117808;27;45719;-71
2022/05/31 02:39:35;;;;;;;;;6.00;6.00;;;;;13.65;59.64;100711.81;5102115;27;45492;-72
2022/05/31 02:42:02;;;;;;;;;6.00;6.00;;;;;13.66;60.40;100716.09;5101783;27;45373;-71
2022/05/31 02:44:28;;;;;;;;;6.00;6.00;;;;;13.55;60.68;100714.78;5100782;27;48069;-71
2022/05/31 02:46:53;;;;;;;;;4.00;4.00;;;;;13.55;60.68;100712.13;5102051;27;45323;-71
2022/05/31 02:49:18;;;;;;;;;2.33;2.33;;;;;13.55;60.38;100703.28;5101930;27;45809;-71
2022/05/31 02:51:46;;;;;;;;;3.00;3.00;;;;;13.60;60.52;100711.53;5100628;27;47152;-71
2022/05/31 02:54:14;;;;;;;;;7.33;7.00;;;;;13.57;60.85;100709.25;5101713;27;46000;-71
2022/05/31 02:56:39;;;;;;;;;3.67;3.67;;;;;13.53;60.78;100716.00;5101636;27;45326;-71
2022/05/31 02:59:08;;;;;;;;;6.00;6.00;;;;;13.49;60.80;100710.19;5101761;27;45236;-71
2022/05/31 03:01:36;;;;;;;;;5.00;4.00;;;;;13.54;61.00;100721.16;5101470;27;45507;-71
2022/05/31 03:04:02;;;;;;;;;5.33;5.33;;;;;13.60;60.71;100719.56;5099155;27;45414;-71
2022/05/31 03:06:28;;;;;;;;;4.67;4.00;;;;;13.59;60.80;100716.06;5081144;27;45601;-71
2022/05/31 03:08:53;;;;;;;;;4.67;4.67;;;;;13.53;61.32;100710.69;5080973;28;45365;-72
2022/05/31 03:11:24;;;;;;;;;3.00;3.00;;;;;13.57;61.09;100726.13;5080967;28;45332;-71
2022/05/31 03:13:55;;;;;;;;;4.00;4.00;;;;;13.36;61.30;100690.41;5081119;27;46351;-71
2022/05/31 03:16:23;;;;;;;;;4.33;4.33;;;;;13.45;61.28;100723.13;5080963;28;45329;-71
2022/05/31 03:19:06;;;;;;;;;4.00;4.00;;;;;13.35;61.19;100710.09;5113838;27;45260;-71
2022/05/31 03:21:44;;;;;;;;;6.67;5.00;;;;;13.38;61.40;100719.59;5080867;28;45324;-71
2022/05/31 03:24:19;;;;;;;;;7.33;7.33;;;;;13.29;61.42;100708.19;5080870;27;46537;-71
2022/05/31 03:26:47;;;;;;;;;7.67;6.33;;;;;13.28;61.94;100719.91;5080577;28;45394;-71
2022/05/31 03:29:13;;;;;;;;;4.67;4.67;;;;;13.27;62.17;100720.94;5113944;27;45371;-71
2022/05/31 03:31:39;;;;;;;;;6.67;6.67;;;;;13.24;62.31;100713.31;5079118;28;46003;-71
2022/05/31 03:34:04;;;;;;;;;7.00;5.00;;;;;13.12;61.91;100699.66;5080444;27;46133;-71
2022/05/31 03:36:30;;;;;;;;;8.33;7.00;;;;;13.19;61.93;100716.53;5080625;27;45332;-71
2022/05/31 03:38:55;;;;;;;;;6.33;4.67;;;;;13.17;61.80;100721.25;5080973;28;45663;-71
2022/05/31 03:41:21;;;;;;;;;6.33;6.33;;;;;13.13;61.42;100727.97;5080417;28;45421;-71
2022/05/31 03:43:46;;;;;;;;;7.00;7.00;;;;;13.09;61.67;100724.88;5079287;28;48661;-71
2022/05/31 03:46:13;;;;;;;;;6.67;6.67;;;;;13.10;61.74;100733.69;5079914;27;45331;-71
2022/05/31 03:48:39;;;;;;;;;8.33;7.67;;;;;13.06;62.25;100717.25;5080609;27;45321;-71
2022/05/31 03:51:07;;;;;;;;;7.33;7.33;;;;;13.10;62.24;100715.03;5070942;27;45392;-71
2022/05/31 03:53:34;;;;;;;;;5.00;4.67;;;;;13.11;62.25;100714.03;5060122;28;45639;-71
2022/05/31 03:56:09;;;;;;;;;4.00;4.00;;;;;13.07;61.87;100707.41;5058536;28;45335;-71
2022/05/31 03:58:35;;;;;;;;;6.33;6.00;;;;;13.03;62.23;100711.47;5060278;28;45321;-71
2022/05/31 04:01:01;;;;;;;;;6.00;6.00;;;;;12.95;62.62;100696.41;5058632;28;45816;-71
2022/05/31 04:03:27;;;;;;;;;6.00;6.00;;;;;12.99;62.75;100703.03;5058543;28;47680;-71
2022/05/31 04:05:54;;;;;;;;;5.00;5.00;;;;;12.88;62.99;100704.38;5095397;27;45303;-72
2022/05/31 04:08:20;;;;;;;;;5.00;5.00;;;;;12.83;62.98;100718.28;5133627;27;45527;-71
2022/05/31 04:10:46;;;;;;;;;4.67;4.67;;;;;12.90;63.17;100734.31;5099057;27;47175;-71
2022/05/31 04:13:14;;;;;;;;;6.00;6.00;;;;;12.96;63.26;100744.25;5090437;27;46131;-71
2022/05/31 04:15:41;;;;;;;;;6.33;6.33;;;;;12.95;63.38;100726.59;5080025;27;45386;-71
2022/05/31 04:18:06;;;;;;;;;4.67;4.67;;;;;13.01;63.88;100727.66;5079982;27;45354;-71
2022/05/31 04:20:33;;;;;;;;;6.67;6.00;;;;;13.00;64.09;100720.69;5078690;28;45570;-71
2022/05/31 04:25:43;;;;;;;;;8.00;6.00;;;;;12.99;63.81;100703.03;5079675;28;45341;-71
2022/05/31 04:28:09;;;;;;;;;6.33;6.33;;;;;12.99;64.00;100698.50;5080038;27;45309;-72
2022/05/31 04:30:35;;;;;;;;;8.33;7.67;;;;;13.10;64.17;100717.69;5079969;27;45448;-72
2022/05/31 04:33:01;;;;;;;;;8.00;7.00;;;;;13.07;63.89;100715.41;5079666;27;45336;-71
2022/05/31 04:35:26;;;;;;;;;9.33;9.33;;;;;13.07;64.05;100718.91;5079736;27;45379;-71
2022/05/31 04:37:51;;;;;;;;;8.00;8.00;;;;;13.08;63.76;100715.22;5078707;28;45390;-71
2022/05/31 04:40:17;;;;;;;;;7.00;7.00;;;;;13.13;64.13;100725.31;5079676;27;45467;-71
2022/05/31 04:42:42;;;;;;;;;11.00;9.00;;;;;13.10;63.94;100729.19;5078247;28;48076;-71
2022/05/31 04:45:09;;;;;;;;;9.67;9.33;;;;;13.14;64.04;100734.97;5079698;27;45388;-71
2022/05/31 04:47:34;;;;;;;;;6.67;6.67;;;;;13.10;64.68;100729.19;5058329;28;45414;-71
2022/05/31 04:50:01;;;;;;;;;7.00;7.00;;;;;13.17;64.39;100723.91;5059373;28;45323;-71
2022/05/31 04:52:26;;;;;;;;;12.00;11.67;;;;;13.18;64.67;100725.59;5059227;28;45283;-71
2022/05/31 04:54:51;;;;;;;;;8.00;8.00;;;;;13.20;65.08;100731.53;5059297;28;45417;-71
2022/05/31 04:57:17;;;;;;;;;8.00;8.00;;;;;13.19;65.01;100727.22;5059343;28;45255;-71
2022/05/31 04:59:42;;;;;;;;;8.00;8.00;;;;;13.17;64.99;100718.56;5064076;28;45346;-71
2022/05/31 05:02:09;;;;;;;;;9.67;9.00;;;;;13.22;64.96;100724.16;5061801;27;45394;-71
2022/05/31 05:04:34;;;;;;;;;12.00;10.00;;;;;13.28;65.36;100725.25;5068084;27;45264;-71
2022/05/31 05:07:00;;;;;;;;;12.00;12.00;;;;;13.32;65.31;100729.16;5078025;28;45612;-71
2022/05/31 05:09:25;;;;;;;;;13.00;11.00;;;;;13.37;65.06;100740.09;5079194;27;45412;-70
2022/05/31 05:11:50;;;;;;;;;22.00;21.00;;;;;13.35;64.16;100720.78;5079121;27;46606;-71
2022/05/31 05:14:16;;;;;;;;;13.00;11.00;;;;;13.39;62.62;100729.25;5079450;27;45332;-72
2022/05/31 05:16:41;;;;;;;;;7.33;6.67;;;;;13.29;61.94;100704.72;5079398;27;45311;-73
2022/05/31 05:19:07;;;;;;;;;13.00;11.00;;;;;13.49;61.81;100734.22;5079130;27;45339;-72
2022/05/31 05:21:32;;;;;;;;;14.00;13.33;;;;;13.50;61.89;100727.91;5094878;27;47051;-74
2022/05/31 05:24:01;;;;;;;;;6.33;6.33;;;;;13.52;61.72;100714.38;5096199;27;45307;-74
2022/05/31 05:26:26;;;;;;;;;4.00;4.00;;;;;13.51;61.03;100724.22;5083058;27;45354;-72
2022/05/31 05:31:39;;;;;;;;;14.00;11.00;;;;;13.62;61.02;100720.19;5082583;28;45243;-72
2022/05/31 05:34:05;;;;;;;;;12.00;10.67;;;;;13.63;61.55;100722.69;5082358;27;45389;-72
2022/05/31 05:36:30;;;;;;;;;25.67;21.67;;;;;13.69;62.48;100745.09;5081298;28;45417;-72
2022/05/31 05:38:56;;;;;;;;;40.75;31.50;;;;;13.69;62.56;100744.25;5098295;27;46306;-72
2022/05/31 05:41:24;;;;;;;;;37.00;32.00;;;;;13.75;62.50;100756.84;5082346;27;45367;-72
2022/05/31 05:43:49;;;;;;;;;16.67;15.67;;;;;13.75;61.69;100759.50;5098225;27;46041;-72
2022/05/31 05:46:21;;;;;;;;;17.33;15.00;;;;;13.81;61.83;100749.88;5082527;27;45457;-72
2022/05/31 05:48:46;;;;;;;;;7.67;7.67;;;;;13.90;61.37;100754.06;5097563;27;46391;-72
2022/05/31 05:51:31;;;;;;;;;5.00;3.67;;;;;14.00;60.62;100759.88;5082228;27;46152;-72
2022/05/31 05:53:57;;;;;;;;;5.33;5.33;;;;;14.04;60.59;100759.50;5082338;28;45405;-72
2022/05/31 05:56:24;;;;;;;;;5.67;5.67;;;;;14.18;60.22;100765.72;5082271;27;45363;-72
2022/05/31 05:58:49;;;;;;;;;5.00;5.00;;;;;14.30;59.95;100769.47;5098061;27;46407;-72
2022/05/31 06:01:20;;;;;;;;;6.00;6.00;;;;;14.39;59.12;100772.81;5082007;27;45273;-72
2022/05/31 06:03:55;;;;;;;;;7.00;7.00;;;;;14.42;58.84;100764.41;5081836;27;45318;-73
2022/05/31 06:06:23;;;;;;;;;4.00;4.00;;;;;14.47;57.97;100745.91;5087122;27;45405;-71
2022/05/31 06:08:56;;;;;;;;;4.67;3.00;;;;;14.62;58.07;100756.47;5078446;28;45418;-71
2022/05/31 06:11:27;;;;;;;;;3.33;3.33;;;;;14.74;58.39;100754.03;5081561;27;45295;-71
2022/05/31 06:14:20;;;;;;;;;8.00;8.00;;;;;14.91;57.56;100766.22;5082214;27;45431;-71
2022/05/31 06:17:12;;;;;;;;;3.33;3.33;;;;;15.00;57.07;100765.81;5082092;27;45228;-71
2022/05/31 06:19:40;;;;;;;;;5.00;5.00;;;;;15.10;57.18;100764.63;5074513;28;45470;-71
2022/05/31 06:22:07;;;;;;;;;5.00;4.67;;;;;15.19;56.50;100758.03;5081972;27;46011;-71
2022/05/31 06:24:34;;;;;;;;;3.33;3.33;;;;;15.25;56.50;100757.22;5081980;27;45280;-71
2022/05/31 06:27:00;;;;;;;;;5.33;4.00;;;;;15.37;56.59;100762.78;5082055;27;45399;-71
2022/05/31 06:29:29;;;;;;;;;18.00;16.00;;;;;15.36;56.41;100752.28;5081810;28;45541;-71
2022/05/31 06:31:54;;;;;;;;;23.33;22.67;;;;;15.42;56.54;100762.19;5081870;27;45324;-70
2022/05/31 06:34:20;;;;;;;;;12.33;11.00;;;;;15.55;56.53;100771.22;5097184;27;45326;-71
2022/05/31 06:36:45;;;;;;;;;4.00;4.00;;;;;15.64;56.18;100769.97;5096851;27;45244;-72
2022/05/31 06:39:10;;;;;;;;;6.67;6.67;;;;;15.75;55.99;100779.25;5081690;27;45330;-72
2022/05/31 06:41:37;;;;;;;;;5.67;5.67;;;;;15.81;55.39;100774.91;5078871;28;47082;-72
2022/05/31 06:44:03;;;;;;;;;5.00;5.00;;;;;15.94;55.12;100776.75;5081644;27;45181;-71
2022/05/31 06:46:30;;;;;;;;;5.67;4.67;;;;;15.96;55.70;100769.31;5080547;28;45390;-72
2022/05/31 06:48:57;;;;;;;;;4.00;4.00;;;;;16.07;55.78;100781.31;5079819;28;46506;-72
2022/05/31 06:56:53;;;;;;;;;2.67;2.67;;;;;16.29;54.58;100773.81;5081304;28;45368;-72
2022/05/31 06:59:18;;;;;;;;;4.00;4.00;;;;;16.31;54.06;100761.00;5079596;28;45371;-72
2022/05/31 07:01:45;;;;;;;;;6.33;6.00;;;;;16.49;53.29;100772.91;5081408;27;45362;-72
2022/05/31 07:04:10;;;;;;;;;4.00;3.00;;;;;16.65;53.37;100776.97;5083630;27;45337;-72
2022/05/31 07:06:36;;;;;;;;;4.00;4.00;;;;;16.70;53.11;100773.63;5099489;27;45337;-72
2022/05/31 07:09:01;;;;;;;;;5.00;5.00;;;;;16.84;52.38;100779.72;5099232;27;45558;-72
2022/05/31 07:11:27;;;;;;;;;3.33;3.33;;;;;16.91;53.13;100769.78;5099382;27;46278;-72
2022/05/31 07:13:53;;;;;;;;;3.00;2.33;;;;;16.99;51.40;100772.22;5099464;27;45559;-72
2022/05/31 07:16:18;;;;;;;;;3.67;3.67;;;;;17.01;50.68;100770.16;5100124;27;45333;-72
2022/05/31 07:18:44;;;;;;;;;5.00;4.00;;;;;17.07;49.81;100775.72;5100337;27;45343;-72
2022/05/31 07:21:10;;;;;;;;;3.33;3.00;;;;;17.04;49.88;100767.00;5101632;27;46186;-72
2022/05/31 07:23:36;;;;;;;;;4.67;4.67;;;;;17.10;49.59;100780.66;5100051;27;45350;-72
2022/05/31 07:26:04;;;;;;;;;3.00;3.00;;;;;17.10;50.14;100788.69;5101527;27;45488;-72
2022/05/31 07:28:30;;;;;;;;;3.00;3.00;;;;;17.06;49.90;100784.78;5101369;27;45316;-72
2022/05/31 07:30:55;;;;;;;;;3.33;3.33;;;;;16.94;50.06;100779.28;5101145;27;45360;-73
2022/05/31 07:33:22;;;;;;;;;4.00;3.00;;;;;17.06;50.10;100795.53;5100899;27;45219;-72
2022/05/31 07:35:49;;;;;;;;;4.00;3.00;;;;;17.06;50.44;100784.78;5101433;27;45329;-72
2022/05/31 07:38:15;;;;;;;;;4.00;4.00;;;;;17.12;49.98;100794.69;5099740;27;46706;-72
2022/05/31 07:40:40;;;;;;;;;5.00;5.00;;;;;17.23;50.24;100777.03;5100690;27;45361;-72
2022/05/31 07:43:06;;;;;;;;;26.00;25.33;;;;;17.41;49.78;100797.78;5101096;27;45349;-72
2022/05/31 07:45:31;;;;;;;;;6.67;6.67;;;;;17.52;50.04;100790.88;5101195;27;45296;-73
2022/05/31 07:47:56;;;;;;;;;5.33;5.00;;;;;17.54;50.26;100778.84;5099736;27;45417;-72
2022/05/31 07:50:22;;;;;;;;;3.67;3.67;;;;;17.70;49.07;100784.72;5101027;27;45236;-72
2022/05/31 07:52:48;;;;;;;;;3.33;3.00;;;;;17.85;48.48;100797.81;5099423;27;45424;-72
2022/05/31 07:55:13;;;;;;;;;3.67;3.33;;;;;17.89;48.36;100790.13;5100893;27;45345;-72
2022/05/31 08:00:23;;;;;;;;;3.00;3.00;;;;;18.07;48.01;100797.38;5100621;27;45875;-72
2022/05/31 08:02:48;;;;;;;;;4.67;4.00;;;;;18.12;47.70;100794.06;5100564;27;45313;-72
2022/05/31 08:05:14;;;;;;;;;6.00;5.00;;;;;18.19;47.36;100802.88;5088319;27;45310;-72
2022/05/31 08:07:40;;;;;;;;;4.00;4.00;;;;;18.23;47.00;100790.63;5080039;27;45169;-72
2022/05/31 08:10:08;;;;;;;;;5.00;4.33;;;;;18.26;46.43;100784.78;5078683;28;47212;-72
2022/05/31 08:12:33;;;;;;;;;5.00;5.00;;;;;18.34;47.11;100797.13;5078781;28;45235;-72
2022/05/31 08:14:58;;;;;;;;;7.67;5.67;;;;;18.34;47.75;100786.34;5080063;28;45282;-72
2022/05/31 08:17:24;;;;;;;;;8.00;6.67;;;;;18.46;46.85;100786.41;5080062;27;45324;-72
2022/05/31 08:19:49;;;;;;;;;7.00;7.00;;;;;18.50;47.01;100792.19;5080116;28;46401;-72
2022/05/31 08:22:14;;;;;;;;;8.33;7.33;;;;;18.58;47.00;100796.44;5078749;28;45449;-72
2022/05/31 08:24:40;;;;;;;;;7.67;6.67;;;;;18.67;46.74;100795.88;5078753;28;45432;-72
2022/05/31 08:27:05;;;;;;;;;7.67;6.00;;;;;18.71;46.48;100798.13;5079761;28;45464;-72
2022/05/31 08:29:31;;;;;;;;;7.00;6.00;;;;;18.72;46.62;100800.59;5078528;28;48079;-72
2022/05/31 08:31:58;;;;;;;;;8.00;7.00;;;;;18.64;46.24;100788.25;5079767;28;45379;-73
2022/05/31 08:34:27;;;;;;;;;7.00;7.00;;;;;18.78;46.21;100804.25;5080104;27;45550;-72
2022/05/31 08:36:53;;;;;;;;;8.33;8.33;;;;;18.75;46.18;100799.31;5079754;28;45512;-72
2022/05/31 08:39:19;;;;;;;;;6.00;6.00;;;;;18.85;46.04;100798.78;5079761;27;45231;-72
2022/05/31 08:41:47;;;;;;;;;6.00;6.00;;;;;18.90;46.11;100802.44;5095358;27;45254;-72
2022/05/31 08:44:15;;;;;;;;;6.00;6.00;;;;;18.87;46.36;100788.59;5080023;27;45287;-72
2022/05/31 08:47:16;;;;;;;;;5.33;4.33;;;;;19.00;45.97;100796.47;5079692;28;45437;-72
2022/05/31 08:53:16;;;;;;;;;7.00;7.00;;;;;19.01;45.87;100800.00;5079499;28;45268;-72
2022/05/31 08:58:55;;;;;;;;;3.67;3.67;;;;;18.98;45.67;100798.59;5079073;28;45452;-72
2022/05/31 09:01:27;;;;;;;;;4.67;4.67;;;;;18.85;44.64;100791.50;5079585;28;45463;-72
2022/05/31 09:03:59;;;;;;;;;4.33;4.33;;;;;18.91;45.52;100806.75;5080287;27;45318;-72
2022/05/31 09:06:36;;;;;;;;;6.00;5.00;;;;;18.96;45.98;100808.75;5100128;27;45404;-72
2022/05/31 09:09:40;;;;;;;;;5.67;5.00;;;;;19.01;45.37;100808.06;5099643;27;45281;-72
2022/05/31 09:12:27;;;;;;;;;5.67;5.67;;;;;18.93;45.27;100798.44;5095581;27;45455;-73
2022/05/31 09:14:57;;;;;;;;;6.67;6.00;;;;;18.99;46.35;100810.16;5099812;27;45460;-73
2022/05/31 09:17:44;;;;;;;;;9.00;8.00;;;;;19.05;46.17;100807.38;5099557;27;45352;-72
2022/05/31 09:20:27;;;;;;;;;5.67;5.67;;;;;19.12;45.46;100809.16;5098181;27;46553;-72
2022/05/31 09:22:54;;;;;;;;;6.33;6.00;;;;;19.15;44.74;100803.31;5097869;27;48322;-72
2022/05/31 09:25:19;;;;;;;;;6.33;6.33;;;;;19.23;44.70;100805.72;5099683;27;45388;-72
2022/05/31 09:27:50;;;;;;;;;6.00;6.00;;;;;19.22;44.72;100806.75;5098127;27;45350;-72
2022/05/31 09:30:23;;;;;;;;;7.00;6.00;;;;;19.29;43.78;100815.56;5099569;27;45341;-72
2022/05/31 09:33:18;;;;;;;;;8.00;7.00;;;;;19.34;44.00;100817.56;5097869;27;48575;-72
2022/05/31 09:36:02;;;;;;;;;6.67;6.67;;;;;19.40;44.43;100816.63;5099525;27;45283;-72
2022/05/31 09:38:55;;;;;;;;;5.00;5.00;;;;;19.43;43.56;100818.06;5098051;27;45328;-72
2022/05/31 09:41:33;;;;;;;;;4.00;4.00;;;;;19.45;44.50;100832.09;5098960;27;45546;-72
2022/05/31 09:44:01;;;;;;;;;5.00;5.00;;;;;19.50;44.11;100823.31;5097848;27;47098;-73
2022/05/31 09:46:42;;;;;;;;;6.00;4.00;;;;;19.53;44.15;100829.06;5099315;27;45315;-73
2022/05/31 09:49:43;;;;;;;;;5.33;5.33;;;;;19.55;43.38;100826.94;5099436;27;45316;-72
2022/05/31 09:52:30;;;;;;;;;4.00;4.00;;;;;19.59;43.11;100819.22;5113131;27;46101;-72
2022/05/31 09:58:09;;;;;;;;;4.67;4.67;;;;;19.65;43.14;100825.56;5099111;27;45425;-72
2022/05/31 10:01:04;;;;;;;;;6.00;5.00;;;;;19.67;42.84;100815.38;5099460;27;45476;-72
2022/05/31 10:03:37;;;;;;;;;6.00;3.33;;;;;19.78;43.70;100811.03;5114315;27;45668;-72
2022/05/31 10:06:20;;;;;;;;;5.00;5.00;;;;;19.79;43.80;100808.09;5079329;27;45372;-72
2022/05/31 10:08:49;;;;;;;;;4.33;4.33;;;;;19.92;43.56;100809.75;5077102;28;46280;-72
2022/05/31 10:11:44;;;;;;;;;6.67;6.00;;;;;19.97;42.82;100808.22;5080270;27;45258;-72
2022/05/31 10:14:23;;;;;;;;;4.33;4.00;;;;;19.97;41.78;100806.34;5081964;27;45540;-72
2022/05/31 10:16:49;;;;;;;;;6.00;4.00;;;;;19.96;41.68;100807.38;5081753;28;45330;-73
2022/05/31 10:19:29;;;;;;;;;5.67;4.00;;;;;20.09;41.76;100805.53;5081804;27;45322;-72
2022/05/31 10:21:54;;;;;;;;;5.00;5.00;;;;;20.18;41.58;100813.00;5082104;27;45336;-72
2022/05/31 10:24:21;;;;;;;;;5.67;5.67;;;;;20.29;40.61;100805.13;5081929;27;45253;-72
2022/05/31 10:27:06;;;;;;;;;7.00;7.00;;;;;20.33;41.25;100784.72;5080320;28;47602;-72
2022/05/31 10:30:00;;;;;;;;;4.00;4.00;;;;;20.65;39.93;100799.66;5080413;28;45443;-72
2022/05/31 10:32:33;;;;;;;;;5.00;3.00;;;;;20.87;40.75;100798.97;5079479;27;45364;-72
2022/05/31 10:35:08;;;;;;;;;4.33;4.33;;;;;21.06;38.60;100799.59;5079971;28;46468;-72
2022/05/31 10:37:33;;;;;;;;;5.33;4.00;;;;;21.19;39.15;100780.38;5079513;28;46402;-73
2022/05/31 10:40:15;;;;;;;;;6.00;4.33;;;;;21.35;38.27;100769.81;5072491;28;45375;-72
2022/05/31 10:42:44;;;;;;;;;3.00;3.00;;;;;21.64;38.50;100783.22;5076609;28;45369;-72
2022/05/31 10:45:21;;;;;;;;;3.67;3.67;;;;;21.96;37.47;100789.09;5081369;28;45315;-72
2022/05/31 10:47:46;;;;;;;;;4.00;4.00;;;;;22.31;36.85;100775.22;5081277;27;45328;-71
2022/05/31 10:50:12;;;;;;;;;3.00;3.00;;;;;22.66;37.60;100767.75;5081518;27;45304;-72
2022/05/31 10:53:03;;;;;;;;;5.33;5.33;;;;;23.16;37.56;100769.53;5080337;28;45324;-72
2022/05/31 10:55:36;;;;;;;;;4.00;3.33;;;;;23.51;33.08;100784.47;5081226;27;45390;-71
2022/05/31 10:58:11;;;;;;;;;4.00;4.00;;;;;23.69;34.84;100774.28;5081332;27;46893;-72
2022/05/31 11:00:44;;;;;;;;;3.00;3.00;;;;;23.77;33.94;100760.25;5079961;28;45389;-72
2022/05/31 11:03:30;;;;;;;;;5.33;4.00;;;;;24.03;34.52;100773.13;5081164;27;45420;-72
2022/05/31 11:05:58;;;;;;;;;3.33;3.33;;;;;24.08;34.93;100776.66;5099284;27;45364;-72
2022/05/31 11:11:41;;;;;;;;;3.00;3.00;;;;;23.92;32.20;100774.97;5101476;27;45400;-72
2022/05/31 11:14:19;;;;;;;;;3.67;3.67;;;;;23.77;31.11;100783.81;5101660;27;45280;-72
2022/05/31 11:17:30;;;;;;;;;3.00;3.00;;;;;23.65;31.99;100782.16;5101670;27;45556;-72
2022/05/31 11:20:11;;;;;;;;;4.33;4.33;;;;;23.68;31.13;100767.22;5099189;27;45514;-72
2022/05/31 11:23:02;;;;;;;;;4.00;4.00;;;;;23.78;31.24;100774.59;5099827;27;45478;-72
2022/05/31 11:25:45;;;;;;;;;3.67;3.67;;;;;23.74;30.23;100779.75;5101553;27;45564;-71
2022/05/31 11:28:37;;;;;;;;;3.33;3.00;;;;;23.65;30.72;100778.59;5099997;27;47411;-71
2022/05/31 11:31:25;;;;;;;;;5.00;4.00;;;;;23.61;31.85;100774.78;5101267;27;46288;-72
2022/05/31 11:33:59;;;;;;;;;3.00;3.00;;;;;23.50;31.52;100782.03;5101099;27;45280;-72
2022/05/31 11:36:55;;;;;;;;;3.33;3.33;;;;;23.31;31.23;100779.69;5101442;27;45236;-73
2022/05/31 11:39:49;;;;;;;;;3.00;3.00;;;;;23.24;31.01;100782.63;5099558;27;46007;-72
2022/05/31 11:42:43;;;;;;;;;3.00;3.00;;;;;23.24;31.27;100774.50;5099294;27;48222;-72
2022/05/31 11:45:32;;;;;;;;;3.00;2.00;;;;;23.40;29.99;100782.78;5101247;27;45461;-73
2022/05/31 11:48:00;;;;;;;;;3.67;3.67;;;;;23.40;29.44;100788.22;5101121;27;45484;-74
2022/05/31 11:50:31;;;;;;;;;4.00;3.67;;;;;23.35;31.26;100791.66;5100956;27;45455;-72
2022/05/31 11:53:18;;;;;;;;;3.00;3.00;;;;;23.49;31.00;100793.97;5099401;27;48184;-72
2022/05/31 11:56:07;;;;;;;;;3.00;3.00;;;;;23.71;31.57;100796.56;5100812;27;45236;-75
2022/05/31 11:58:47;;;;;;;;;3.67;3.00;;;;;23.70;29.97;100784.88;5101124;27;45415;-75
2022/05/31 12:01:32;;;;;;;;;4.67;4.67;;;;;23.64;29.74;100774.28;5134003;27;46561;-74
2022/05/31 12:04:09;;;;;;;;;3.67;3.67;;;;;23.86;31.45;100790.41;5098848;27;45594;-73
2022/05/31 12:06:40;;;;;;;;;2.67;2.67;;;;;24.02;30.93;100790.47;5078970;28;45398;-75